Time;durP1;ratioP1;P1;durP2;ratioP2;P2;SDS_P1;SDS_P2;PMS_P1;PMS_P2;Temp;Humidity;BMP_temperature;BMP_pressure;BME280_temperature;BME280_humidity;BME280_pressure;Samples;Min_cycle;Max_cycle;Signal;HPM_P1;HPM_P2
2021/10/17 00:00:03;;;;;;;12.40;9.38;;;;;;;;;;4984116;28;20280;-73
2021/10/17 00:02:30;;;;;;;8.10;7.28;;;;;;;;;;4984276;28;20203;-73
2021/10/17 00:04:57;;;;;;;9.95;7.20;;;;;;;;;;4982900;28;20680;-74
2021/10/17 00:07:24;;;;;;;7.55;6.80;;;;;;;;;;4979767;28;20218;-73
2021/10/17 00:09:52;;;;;;;8.70;7.90;;;;;;;;;;4982314;28;20574;-75
2021/10/17 00:12:19;;;;;;;10.35;7.60;;;;;;;;;;4980552;28;20202;-74
2021/10/17 00:14:46;;;;;;;9.05;8.15;;;;;;;;;;4982752;28;20325;-73
2021/10/17 00:17:14;;;;;;;9.75;7.75;;;;;;;;;;4981503;28;20201;-75
2021/10/17 00:19:41;;;;;;;9.68;7.55;;;;;;;;;;4979797;28;20644;-73
2021/10/17 00:22:08;;;;;;;8.27;7.43;;;;;;;;;;4979309;28;20206;-73
2021/10/17 00:24:35;;;;;;;7.82;7.03;;;;;;;;;;4981630;28;20198;-72
2021/10/17 00:27:03;;;;;;;10.10;8.77;;;;;;;;;;4981856;28;20584;-74
2021/10/17 00:29:30;;;;;;;8.68;7.13;;;;;;;;;;4980844;28;20198;-73
2021/10/17 00:31:57;;;;;;;11.57;7.25;;;;;;;;;;4991403;28;20696;-73
2021/10/17 00:34:24;;;;;;;8.02;7.22;;;;;;;;;;4990252;28;20201;-73
2021/10/17 00:36:51;;;;;;;8.38;6.25;;;;;;;;;;4976262;28;20194;-74
2021/10/17 00:39:18;;;;;;;7.30;6.25;;;;;;;;;;4982638;28;20214;-74
2021/10/17 00:41:46;;;;;;;8.68;7.78;;;;;;;;;;4981891;28;20205;-76
2021/10/17 00:44:20;;;;;;;10.10;7.75;;;;;;;;;;4980759;28;20204;-73
2021/10/17 00:46:47;;;;;;;8.75;7.32;;;;;;;;;;4981209;28;20224;-74
2021/10/17 00:49:14;;;;;;;9.02;6.85;;;;;;;;;;4981726;28;20204;-75
2021/10/17 00:51:42;;;;;;;9.70;8.05;;;;;;;;;;4979664;28;20205;-73
2021/10/17 00:54:10;;;;;;;10.43;7.35;;;;;;;;;;4977591;28;20198;-74
2021/10/17 00:56:37;;;;;;;8.07;7.28;;;;;;;;;;4978753;28;20197;-74
2021/10/17 00:59:05;;;;;;;11.13;8.13;;;;;;;;;;4979327;28;20250;-75
2021/10/17 01:01:33;;;;;;;10.20;8.73;;;;;;;;;;4978109;28;20501;-73
2021/10/17 01:04:01;;;;;;;11.13;8.07;;;;;;;;;;4980796;28;20205;-76
2021/10/17 01:06:28;;;;;;;9.90;8.30;;;;;;;;;;4988785;28;20308;-73
2021/10/17 01:08:55;;;;;;;10.60;7.88;;;;;;;;;;4989615;28;20201;-74
2021/10/17 01:11:23;;;;;;;10.05;8.15;;;;;;;;;;4992418;28;20616;-75
2021/10/17 01:13:50;;;;;;;8.80;7.25;;;;;;;;;;4988211;28;20208;-75
2021/10/17 01:16:17;;;;;;;10.60;7.40;;;;;;;;;;4990449;28;20208;-74
2021/10/17 01:18:45;;;;;;;9.73;7.57;;;;;;;;;;4986567;28;20205;-72
2021/10/17 01:21:13;;;;;;;16.02;8.60;;;;;;;;;;4978759;28;20189;-73
2021/10/17 01:23:41;;;;;;;9.65;7.88;;;;;;;;;;4978422;28;20210;-73
2021/10/17 01:26:08;;;;;;;7.38;6.65;;;;;;;;;;4979814;28;20213;-74
2021/10/17 01:28:35;;;;;;;8.38;6.50;;;;;;;;;;4979304;28;20190;-74
2021/10/17 01:31:02;;;;;;;7.57;6.82;;;;;;;;;;4979439;28;20669;-73
2021/10/17 01:33:29;;;;;;;9.50;7.45;;;;;;;;;;4980528;28;20202;-73
2021/10/17 01:35:56;;;;;;;7.75;6.50;;;;;;;;;;4981392;28;20189;-74
2021/10/17 01:38:24;;;;;;;9.35;6.97;;;;;;;;;;4977666;28;20661;-73
2021/10/17 01:40:51;;;;;;;7.55;6.43;;;;;;;;;;4982275;28;20205;-74
2021/10/17 01:43:18;;;;;;;8.23;7.32;;;;;;;;;;4992439;28;20272;-73
2021/10/17 01:45:45;;;;;;;8.52;7.05;;;;;;;;;;4986880;28;20704;-72
2021/10/17 01:48:12;;;;;;;7.88;6.80;;;;;;;;;;4982935;28;20241;-71
2021/10/17 01:50:39;;;;;;;8.95;7.53;;;;;;;;;;4982869;28;20209;-72
2021/10/17 01:53:07;;;;;;;8.15;5.95;;;;;;;;;;4983222;28;20260;-73
2021/10/17 01:55:35;;;;;;;10.02;6.95;;;;;;;;;;4983831;28;20256;-73
2021/10/17 01:58:02;;;;;;;8.48;6.63;;;;;;;;;;4983848;28;20197;-74
2021/10/17 02:00:29;;;;;;;7.65;6.40;;;;;;;;;;4984868;28;20197;-75
2021/10/17 02:02:56;;;;;;;8.32;6.35;;;;;;;;;;4985726;28;20217;-73
2021/10/17 02:05:23;;;;;;;6.53;5.93;;;;;;;;;;4992352;28;20669;-75
2021/10/17 02:07:50;;;;;;;10.02;6.38;;;;;;;;;;4983633;28;20681;-76
2021/10/17 02:10:17;;;;;;;6.30;5.20;;;;;;;;;;4992510;28;20201;-74
2021/10/17 02:12:46;;;;;;;8.82;7.30;;;;;;;;;;4985285;28;20201;-74
2021/10/17 02:15:13;;;;;;;7.63;6.18;;;;;;;;;;4986365;28;20493;-73
2021/10/17 02:17:40;;;;;;;7.20;5.88;;;;;;;;;;4983276;28;20667;-74
2021/10/17 02:20:08;;;;;;;7.07;5.93;;;;;;;;;;4975577;28;20198;-74
2021/10/17 02:22:35;;;;;;;7.57;5.68;;;;;;;;;;4977240;28;20209;-73
2021/10/17 02:25:02;;;;;;;7.25;6.63;;;;;;;;;;4988728;28;20214;-75
2021/10/17 02:27:29;;;;;;;6.15;4.97;;;;;;;;;;4984081;28;20218;-73
2021/10/17 02:29:57;;;;;;;6.68;5.38;;;;;;;;;;4984305;28;20697;-73
2021/10/17 02:32:24;;;;;;;7.43;5.85;;;;;;;;;;4983931;28;20204;-74
2021/10/17 02:34:51;;;;;;;6.00;5.05;;;;;;;;;;4982939;28;20409;-73
2021/10/17 02:37:18;;;;;;;7.95;4.97;;;;;;;;;;4983298;28;20268;-74
2021/10/17 02:39:45;;;;;;;6.10;5.50;;;;;;;;;;4982592;28;20252;-73
2021/10/17 02:42:13;;;;;;;7.78;5.88;;;;;;;;;;4983113;28;20202;-73
2021/10/17 02:44:40;;;;;;;6.38;4.85;;;;;;;;;;4982369;28;20197;-72
2021/10/17 02:47:08;;;;;;;6.15;5.32;;;;;;;;;;4985457;28;20751;-74
2021/10/17 02:49:35;;;;;;;7.10;5.68;;;;;;;;;;4989648;28;20208;-74
2021/10/17 02:52:02;;;;;;;8.38;5.20;;;;;;;;;;4989943;28;20640;-73
2021/10/17 02:54:29;;;;;;;8.70;6.40;;;;;;;;;;4982776;28;20205;-73
2021/10/17 02:56:56;;;;;;;6.95;5.13;;;;;;;;;;4983592;28;20224;-73
2021/10/17 02:59:23;;;;;;;5.25;4.80;;;;;;;;;;4981949;28;20248;-74
2021/10/17 03:01:50;;;;;;;6.90;4.97;;;;;;;;;;4982954;28;20213;-72
2021/10/17 03:04:18;;;;;;;7.75;5.47;;;;;;;;;;4985539;28;20200;-72
2021/10/17 03:06:45;;;;;;;6.55;5.35;;;;;;;;;;4985425;28;20205;-72
2021/10/17 03:09:13;;;;;;;5.07;4.57;;;;;;;;;;4980702;28;20201;-75
2021/10/17 03:11:40;;;;;;;7.50;4.80;;;;;;;;;;4984602;28;20264;-75
2021/10/17 03:14:08;;;;;;;4.50;4.10;;;;;;;;;;4982240;28;20201;-75
2021/10/17 03:16:35;;;;;;;4.90;4.40;;;;;;;;;;4981529;28;20213;-73
2021/10/17 03:19:02;;;;;;;6.85;4.70;;;;;;;;;;4982822;28;20201;-73
2021/10/17 03:21:31;;;;;;;6.93;4.70;;;;;;;;;;4979371;28;20589;-73
2021/10/17 03:23:58;;;;;;;5.32;4.25;;;;;;;;;;4980554;28;20197;-74
2021/10/17 03:26:25;;;;;;;8.63;5.25;;;;;;;;;;4981106;28;20227;-75
2021/10/17 03:28:52;;;;;;;9.30;4.47;;;;;;;;;;4982591;28;20701;-73
2021/10/17 03:31:19;;;;;;;4.90;4.47;;;;;;;;;;4986338;28;20229;-75
2021/10/17 03:33:46;;;;;;;6.45;4.65;;;;;;;;;;4981262;28;20201;-73
2021/10/17 03:36:13;;;;;;;6.82;4.05;;;;;;;;;;4980642;28;20232;-75
2021/10/17 03:38:41;;;;;;;4.40;4.00;;;;;;;;;;4980384;28;20233;-73
2021/10/17 03:41:11;;;;;;;5.57;4.53;;;;;;;;;;4977598;28;20666;-73
2021/10/17 03:43:38;;;;;;;7.15;4.22;;;;;;;;;;4983232;28;20198;-73
2021/10/17 03:46:06;;;;;;;4.57;4.18;;;;;;;;;;4979419;28;20890;-74
2021/10/17 03:48:33;;;;;;;5.75;4.30;;;;;;;;;;4983938;28;20230;-73
2021/10/17 03:51:00;;;;;;;5.38;4.45;;;;;;;;;;4981065;28;20194;-73
2021/10/17 03:53:27;;;;;;;4.07;3.38;;;;;;;;;;4983145;28;20205;-73
2021/10/17 03:55:55;;;;;;;4.80;4.35;;;;;;;;;;4981115;28;20202;-73
2021/10/17 03:58:22;;;;;;;6.00;4.00;;;;;;;;;;4983016;28;20206;-74
2021/10/17 04:00:49;;;;;;;5.05;4.15;;;;;;;;;;4987035;28;20553;-74
2021/10/17 04:03:18;;;;;;;6.55;3.83;;;;;;;;;;4989238;28;20680;-74
2021/10/17 04:05:45;;;;;;;7.10;4.72;;;;;;;;;;4988379;28;20203;-72
2021/10/17 04:08:12;;;;;;;5.40;4.53;;;;;;;;;;4985128;28;20221;-74
2021/10/17 04:10:39;;;;;;;5.32;4.25;;;;;;;;;;4977779;28;20202;-73
2021/10/17 04:13:07;;;;;;;5.72;4.45;;;;;;;;;;4980788;28;20605;-75
2021/10/17 04:15:35;;;;;;;5.18;4.68;;;;;;;;;;4982067;28;20612;-74
2021/10/17 04:18:03;;;;;;;6.55;4.43;;;;;;;;;;4988710;28;20201;-72
2021/10/17 04:20:30;;;;;;;6.13;3.58;;;;;;;;;;4988057;28;20241;-73
2021/10/17 04:22:58;;;;;;;5.03;4.35;;;;;;;;;;4982334;28;20203;-73
2021/10/17 04:25:25;;;;;;;4.63;3.83;;;;;;;;;;4978300;28;20205;-73
2021/10/17 04:27:52;;;;;;;5.45;4.13;;;;;;;;;;4981113;28;20720;-73
2021/10/17 04:30:20;;;;;;;5.00;3.40;;;;;;;;;;4984192;28;20217;-73
2021/10/17 04:32:47;;;;;;;5.88;4.53;;;;;;;;;;4980686;28;20660;-74
2021/10/17 04:35:14;;;;;;;5.43;3.88;;;;;;;;;;4979972;28;20563;-75
2021/10/17 04:37:41;;;;;;;9.15;5.53;;;;;;;;;;4982234;28;20205;-73
2021/10/17 04:40:09;;;;;;;5.55;5.05;;;;;;;;;;4982198;28;20201;-74
2021/10/17 04:42:37;;;;;;;5.28;3.70;;;;;;;;;;4979055;28;20194;-75
2021/10/17 04:45:05;;;;;;;4.70;3.80;;;;;;;;;;4983643;28;20565;-73
2021/10/17 04:47:33;;;;;;;5.00;3.58;;;;;;;;;;4982393;28;20228;-73
2021/10/17 04:50:00;;;;;;;12.00;4.18;;;;;;;;;;4980170;28;20198;-72
2021/10/17 04:52:27;;;;;;;5.18;4.13;;;;;;;;;;4980902;28;20194;-73
2021/10/17 04:54:54;;;;;;;4.35;3.80;;;;;;;;;;4981181;28;20194;-75
2021/10/17 04:57:21;;;;;;;5.57;3.88;;;;;;;;;;4982651;28;20202;-74
2021/10/17 04:59:48;;;;;;;11.13;4.60;;;;;;;;;;4981733;28;20202;-73
2021/10/17 05:02:15;;;;;;;5.43;3.67;;;;;;;;;;4980944;28;21480;-73
2021/10/17 05:04:46;;;;;;;4.20;3.80;;;;;;;;;;4980088;28;20194;-72
2021/10/17 05:07:13;;;;;;;7.75;4.70;;;;;;;;;;4979243;28;20253;-73
2021/10/17 05:09:40;;;;;;;4.95;3.85;;;;;;;;;;4981017;28;20613;-73
2021/10/17 05:12:07;;;;;;;5.82;3.35;;;;;;;;;;4980303;28;20248;-75
2021/10/17 05:14:34;;;;;;;6.47;3.67;;;;;;;;;;4980463;28;20203;-73
2021/10/17 05:17:01;;;;;;;4.15;3.75;;;;;;;;;;4982581;28;20193;-75
2021/10/17 05:19:28;;;;;;;5.90;4.13;;;;;;;;;;4982420;28;20240;-74
2021/10/17 05:21:56;;;;;;;7.15;4.40;;;;;;;;;;4996153;28;20557;-75
2021/10/17 05:24:23;;;;;;;5.63;4.63;;;;;;;;;;4982764;28;20247;-75
2021/10/17 05:26:50;;;;;;;3.80;3.45;;;;;;;;;;4991969;28;20200;-75
2021/10/17 05:29:17;;;;;;;5.60;4.22;;;;;;;;;;4991782;28;20225;-76
2021/10/17 05:31:44;;;;;;;7.13;4.10;;;;;;;;;;4985256;28;20588;-75
2021/10/17 05:34:12;;;;;;;4.55;3.45;;;;;;;;;;4985545;28;20217;-75
2021/10/17 05:36:39;;;;;;;5.00;4.57;;;;;;;;;;4984753;28;20202;-74
2021/10/17 05:39:07;;;;;;;8.05;3.80;;;;;;;;;;4984319;28;20205;-74
2021/10/17 05:41:34;;;;;;;5.07;4.57;;;;;;;;;;4982707;28;20205;-75
2021/10/17 05:44:01;;;;;;;7.03;4.90;;;;;;;;;;4984144;28;20206;-74
2021/10/17 05:46:29;;;;;;;5.40;4.50;;;;;;;;;;4985347;28;20213;-74
2021/10/17 05:48:56;;;;;;;5.95;4.10;;;;;;;;;;4984322;28;20677;-74
2021/10/17 05:51:23;;;;;;;8.45;4.25;;;;;;;;;;4982738;28;20613;-75
2021/10/17 05:53:50;;;;;;;6.32;4.50;;;;;;;;;;4984656;28;20198;-74
2021/10/17 05:56:18;;;;;;;8.80;6.25;;;;;;;;;;4995560;28;20201;-74
2021/10/17 05:58:45;;;;;;;10.32;5.80;;;;;;;;;;4995548;28;20565;-74
2021/10/17 06:01:12;;;;;;;6.97;4.20;;;;;;;;;;4988446;28;20256;-74
2021/10/17 06:03:39;;;;;;;5.05;4.10;;;;;;;;;;4990728;28;20206;-75
2021/10/17 06:06:06;;;;;;;7.07;4.75;;;;;;;;;;4984880;28;20736;-74
2021/10/17 06:08:35;;;;;;;5.55;4.03;;;;;;;;;;4985105;28;20226;-75
2021/10/17 06:11:02;;;;;;;7.40;5.10;;;;;;;;;;4982639;28;20213;-75
2021/10/17 06:13:30;;;;;;;6.65;5.00;;;;;;;;;;4984654;28;20205;-75
2021/10/17 06:15:58;;;;;;;5.75;4.15;;;;;;;;;;4981735;28;20199;-74
2021/10/17 06:18:25;;;;;;;7.97;5.30;;;;;;;;;;4988100;28;20232;-75
2021/10/17 06:20:52;;;;;;;4.85;4.22;;;;;;;;;;4983526;28;20263;-75
2021/10/17 06:23:19;;;;;;;5.63;4.47;;;;;;;;;;4976311;28;20202;-75
2021/10/17 06:25:46;;;;;;;5.45;4.25;;;;;;;;;;4992583;28;20288;-75
2021/10/17 06:28:13;;;;;;;5.22;4.72;;;;;;;;;;4990687;28;20221;-77
2021/10/17 06:30:41;;;;;;;6.20;4.95;;;;;;;;;;4983124;28;20673;-76
2021/10/17 06:33:08;;;;;;;5.20;4.25;;;;;;;;;;4988627;28;20211;-78
2021/10/17 06:35:35;;;;;;;8.10;4.20;;;;;;;;;;4992524;28;20205;-76
2021/10/17 06:38:02;;;;;;;5.32;4.38;;;;;;;;;;4989219;28;20202;-77
2021/10/17 06:40:29;;;;;;;7.88;5.43;;;;;;;;;;4975251;28;20222;-76
2021/10/17 06:42:57;;;;;;;9.73;7.35;;;;;;;;;;4975095;28;20202;-77
2021/10/17 06:45:24;;;;;;;7.88;5.63;;;;;;;;;;4992442;28;20229;-76
2021/10/17 06:47:53;;;;;;;8.32;5.57;;;;;;;;;;4982615;28;20205;-76
2021/10/17 06:50:21;;;;;;;7.88;5.25;;;;;;;;;;4987064;28;20201;-76
2021/10/17 06:52:48;;;;;;;6.00;5.30;;;;;;;;;;4990754;28;20650;-76
2021/10/17 06:55:15;;;;;;;8.15;5.60;;;;;;;;;;4981701;28;20677;-77
2021/10/17 06:57:42;;;;;;;7.63;6.35;;;;;;;;;;4994225;28;20201;-75
2021/10/17 07:00:10;;;;;;;7.25;5.20;;;;;;;;;;4993780;28;20197;-77
2021/10/17 07:02:37;;;;;;;10.43;6.82;;;;;;;;;;4979330;28;20677;-77
2021/10/17 07:05:06;;;;;;;6.55;5.32;;;;;;;;;;4992529;28;21768;-75
2021/10/17 07:07:33;;;;;;;7.57;6.03;;;;;;;;;;4993530;28;20565;-76
2021/10/17 07:10:00;;;;;;;5.95;5.25;;;;;;;;;;4994262;28;20253;-75
2021/10/17 07:12:27;;;;;;;7.32;4.65;;;;;;;;;;4989057;28;20204;-75
2021/10/17 07:14:54;;;;;;;6.78;4.68;;;;;;;;;;4992859;28;20208;-76
2021/10/17 07:17:22;;;;;;;7.40;5.60;;;;;;;;;;4988869;28;20216;-77
2021/10/17 07:19:49;;;;;;;5.65;5.15;;;;;;;;;;4992968;28;20189;-75
2021/10/17 07:22:17;;;;;;;7.03;5.75;;;;;;;;;;4992613;28;20687;-75
2021/10/17 07:24:44;;;;;;;7.20;5.57;;;;;;;;;;4974939;28;20221;-75
2021/10/17 07:27:11;;;;;;;5.80;4.38;;;;;;;;;;4991094;28;20201;-76
2021/10/17 07:29:38;;;;;;;9.30;5.05;;;;;;;;;;4974544;28;20222;-74
2021/10/17 07:32:06;;;;;;;6.15;5.05;;;;;;;;;;4981425;28;20421;-75
2021/10/17 07:34:33;;;;;;;6.78;4.20;;;;;;;;;;4993879;28;20260;-75
2021/10/17 07:37:00;;;;;;;5.63;4.30;;;;;;;;;;4993758;28;20556;-75
2021/10/17 07:39:28;;;;;;;5.95;4.97;;;;;;;;;;4992179;28;20205;-75
2021/10/17 07:41:55;;;;;;;4.55;3.60;;;;;;;;;;4993390;28;20198;-75
2021/10/17 07:44:22;;;;;;;9.50;4.47;;;;;;;;;;4993434;28;20208;-76
2021/10/17 07:46:49;;;;;;;7.72;4.50;;;;;;;;;;4992707;28;20202;-76
2021/10/17 07:49:16;;;;;;;4.78;4.35;;;;;;;;;;4993261;28;20221;-77
2021/10/17 07:51:43;;;;;;;6.47;4.07;;;;;;;;;;4989821;28;20201;-78
2021/10/17 07:54:10;;;;;;;6.03;5.28;;;;;;;;;;4978586;28;20209;-76
2021/10/17 07:56:39;;;;;;;4.90;4.40;;;;;;;;;;4990300;28;20588;-75
2021/10/17 07:59:06;;;;;;;7.50;4.88;;;;;;;;;;4993357;28;20689;-76
2021/10/17 08:01:33;;;;;;;4.45;3.60;;;;;;;;;;4993200;28;20248;-74
2021/10/17 08:04:00;;;;;;;5.28;3.90;;;;;;;;;;4975289;28;20330;-75
2021/10/17 08:06:27;;;;;;;6.38;5.07;;;;;;;;;;4986223;28;20642;-75
2021/10/17 08:08:54;;;;;;;5.60;4.68;;;;;;;;;;4985093;28;20222;-75
2021/10/17 08:11:21;;;;;;;9.20;4.38;;;;;;;;;;4990080;28;20205;-75
2021/10/17 08:13:49;;;;;;;6.00;4.15;;;;;;;;;;4980296;28;20190;-75
2021/10/17 08:16:16;;;;;;;8.20;4.38;;;;;;;;;;4977274;28;20203;-74
2021/10/17 08:18:43;;;;;;;5.60;4.13;;;;;;;;;;4983355;28;20248;-73
2021/10/17 08:21:11;;;;;;;5.47;4.75;;;;;;;;;;4988782;28;20542;-75
2021/10/17 08:23:38;;;;;;;10.45;4.90;;;;;;;;;;4983523;28;20268;-74
2021/10/17 08:26:05;;;;;;;10.07;5.40;;;;;;;;;;4984982;28;20247;-75
2021/10/17 08:28:32;;;;;;;7.53;4.20;;;;;;;;;;4989263;28;20209;-75
2021/10/17 08:31:00;;;;;;;6.97;4.45;;;;;;;;;;4988648;28;20267;-74
2021/10/17 08:33:28;;;;;;;5.32;4.82;;;;;;;;;;4987394;28;20205;-75
2021/10/17 08:35:55;;;;;;;5.68;3.80;;;;;;;;;;4984161;28;20204;-74
2021/10/17 08:38:22;;;;;;;5.07;4.57;;;;;;;;;;4975564;28;20249;-73
2021/10/17 08:40:50;;;;;;;4.53;4.07;;;;;;;;;;4986816;28;20209;-74
2021/10/17 08:43:17;;;;;;;4.78;4.38;;;;;;;;;;4981112;28;20198;-74
2021/10/17 08:45:44;;;;;;;8.25;4.30;;;;;;;;;;4984273;28;20193;-73
2021/10/17 08:48:13;;;;;;;5.20;4.25;;;;;;;;;;4980901;28;20241;-74
2021/10/17 08:50:40;;;;;;;5.53;4.38;;;;;;;;;;4979649;28;21656;-74
2021/10/17 08:53:07;;;;;;;4.05;3.60;;;;;;;;;;4982151;28;20210;-74
2021/10/17 08:55:34;;;;;;;4.75;3.50;;;;;;;;;;4982516;28;20198;-73
2021/10/17 08:58:01;;;;;;;6.53;4.03;;;;;;;;;;4979654;28;20629;-75
2021/10/17 09:00:29;;;;;;;5.03;3.38;;;;;;;;;;4983217;28;20193;-74
2021/10/17 09:02:57;;;;;;;4.00;3.30;;;;;;;;;;4981876;28;20210;-74
2021/10/17 09:05:35;;;;;;;5.10;4.35;;;;;;;;;;4981095;28;20255;-74
2021/10/17 09:08:02;;;;;;;5.53;3.72;;;;;;;;;;4981404;28;20202;-73
2021/10/17 09:10:29;;;;;;;4.53;4.05;;;;;;;;;;4981449;28;20217;-74
2021/10/17 09:13:06;;;;;;;7.53;3.67;;;;;;;;;;4982602;28;20197;-73
2021/10/17 09:15:34;;;;;;;3.58;2.90;;;;;;;;;;4981101;28;20201;-75
2021/10/17 09:18:04;;;;;;;4.35;3.35;;;;;;;;;;4979607;28;20252;-74
2021/10/17 09:20:32;;;;;;;4.55;3.20;;;;;;;;;;4981492;28;20480;-72
2021/10/17 09:23:01;;;;;;;4.30;3.05;;;;;;;;;;4981987;28;20605;-74
2021/10/17 09:25:31;;;;;;;8.52;3.33;;;;;;;;;;4980848;28;20213;-75
2021/10/17 09:28:00;;;;;;;3.97;3.35;;;;;;;;;;4976843;28;20194;-72
2021/10/17 09:30:27;;;;;;;4.18;3.10;;;;;;;;;;4982170;28;20693;-73
2021/10/17 09:33:10;;;;;;;4.50;3.58;;;;;;;;;;4981632;28;20248;-74
2021/10/17 09:35:37;;;;;;;2.95;2.65;;;;;;;;;;4984447;28;20217;-76
2021/10/17 09:38:06;;;;;;;3.88;3.00;;;;;;;;;;4980317;28;20744;-74
2021/10/17 09:40:35;;;;;;;4.00;3.45;;;;;;;;;;4980327;28;20284;-76
2021/10/17 09:43:06;;;;;;;4.85;3.50;;;;;;;;;;4981019;28;20202;-74
2021/10/17 09:45:34;;;;;;;6.70;4.03;;;;;;;;;;4983225;28;20900;-74
2021/10/17 09:48:01;;;;;;;4.10;2.67;;;;;;;;;;4980694;28;20237;-77
2021/10/17 09:50:28;;;;;;;5.93;3.70;;;;;;;;;;4981898;28;20226;-74
2021/10/17 09:53:03;;;;;;;4.43;2.97;;;;;;;;;;4983286;28;20194;-74
2021/10/17 09:55:33;;;;;;;4.53;3.08;;;;;;;;;;4990182;28;20930;-72
2021/10/17 09:58:00;;;;;;;4.85;3.63;;;;;;;;;;4989287;28;20198;-74
2021/10/17 10:00:28;;;;;;;4.20;3.25;;;;;;;;;;4990453;28;20197;-73
2021/10/17 10:02:55;;;;;;;2.80;2.60;;;;;;;;;;4990797;28;20197;-74
2021/10/17 10:05:24;;;;;;;4.05;2.97;;;;;;;;;;4980793;28;20202;-74
2021/10/17 10:07:52;;;;;;;4.07;3.13;;;;;;;;;;4984563;28;20201;-73
2021/10/17 10:10:20;;;;;;;4.78;3.50;;;;;;;;;;4992532;28;20256;-75
2021/10/17 10:12:48;;;;;;;5.00;3.53;;;;;;;;;;4984678;28;20299;-76
2021/10/17 10:15:16;;;;;;;3.78;3.08;;;;;;;;;;4981388;28;20244;-75
2021/10/17 10:17:43;;;;;;;7.72;3.63;;;;;;;;;;4984529;28;20557;-76
2021/10/17 10:20:11;;;;;;;3.90;2.97;;;;;;;;;;4982689;28;20691;-74
2021/10/17 10:22:38;;;;;;;3.20;2.90;;;;;;;;;;4983123;28;20244;-75
2021/10/17 10:25:05;;;;;;;4.35;3.13;;;;;;;;;;4983831;28;20751;-74
2021/10/17 10:27:33;;;;;;;4.07;2.63;;;;;;;;;;4986170;28;20193;-73
2021/10/17 10:30:18;;;;;;;5.10;2.75;;;;;;;;;;4985748;28;20336;-75
2021/10/17 10:33:09;;;;;;;3.38;3.05;;;;;;;;;;4986909;28;20213;-74
2021/10/17 10:35:36;;;;;;;3.35;2.50;;;;;;;;;;4985933;28;20345;-74
2021/10/17 10:38:04;;;;;;;3.05;2.75;;;;;;;;;;4983681;28;20600;-74
2021/10/17 10:40:31;;;;;;;5.68;2.40;;;;;;;;;;4982407;28;20811;-75
2021/10/17 10:43:13;;;;;;;5.15;2.75;;;;;;;;;;4984860;28;20748;-74
2021/10/17 10:45:40;;;;;;;4.38;2.40;;;;;;;;;;4982952;28;20620;-74
2021/10/17 10:48:20;;;;;;;3.38;2.28;;;;;;;;;;4982431;28;20203;-76
2021/10/17 10:50:48;;;;;;;3.20;2.90;;;;;;;;;;4987095;28;20748;-74
2021/10/17 10:53:45;;;;;;;3.13;2.42;;;;;;;;;;4983834;28;20604;-74
2021/10/17 10:56:12;;;;;;;3.70;2.97;;;;;;;;;;4984093;28;20201;-73
2021/10/17 10:58:54;;;;;;;4.60;2.90;;;;;;;;;;4985104;28;20213;-73
2021/10/17 11:01:44;;;;;;;3.53;2.25;;;;;;;;;;4983173;28;20210;-74
2021/10/17 11:04:13;;;;;;;3.40;3.10;;;;;;;;;;4990943;28;20932;-76
2021/10/17 11:06:40;;;;;;;4.72;2.42;;;;;;;;;;4988165;28;20185;-73
2021/10/17 11:09:23;;;;;;;4.82;2.40;;;;;;;;;;4986448;28;20210;-73
2021/10/17 11:11:50;;;;;;;3.10;2.60;;;;;;;;;;4990998;28;20634;-76
2021/10/17 11:14:17;;;;;;;4.25;2.30;;;;;;;;;;4988560;28;20676;-74
2021/10/17 11:16:44;;;;;;;3.60;2.42;;;;;;;;;;4986425;28;20209;-73
2021/10/17 11:19:14;;;;;;;2.88;2.42;;;;;;;;;;4986808;28;20205;-73
2021/10/17 11:21:41;;;;;;;3.15;2.80;;;;;;;;;;4987312;28;20216;-73
2021/10/17 11:24:10;;;;;;;3.63;2.38;;;;;;;;;;4989952;28;20220;-79
2021/10/17 11:26:37;;;;;;;3.10;2.58;;;;;;;;;;4989295;28;20210;-76
2021/10/17 11:29:06;;;;;;;2.72;2.30;;;;;;;;;;4992002;28;20197;-76
2021/10/17 11:31:33;;;;;;;4.60;2.42;;;;;;;;;;4992395;28;20221;-76
2021/10/17 11:34:00;;;;;;;3.67;2.60;;;;;;;;;;4985074;28;20208;-75
2021/10/17 11:36:28;;;;;;;3.83;2.58;;;;;;;;;;4984449;28;20224;-75
2021/10/17 11:38:56;;;;;;;5.03;2.80;;;;;;;;;;4985919;28;20305;-76
2021/10/17 11:41:23;;;;;;;4.70;2.60;;;;;;;;;;4985485;28;20197;-76
2021/10/17 11:43:51;;;;;;;3.97;2.70;;;;;;;;;;4986208;28;20665;-77
2021/10/17 11:46:18;;;;;;;2.97;2.30;;;;;;;;;;4982428;28;20201;-75
2021/10/17 11:48:46;;;;;;;3.88;2.42;;;;;;;;;;4986182;28;20260;-75
2021/10/17 11:51:14;;;;;;;3.42;2.85;;;;;;;;;;4983433;28;20570;-77
2021/10/17 11:53:43;;;;;;;5.93;3.00;;;;;;;;;;4988514;28;20679;-76
2021/10/17 11:56:11;;;;;;;3.30;3.00;;;;;;;;;;4991738;28;20201;-76
2021/10/17 11:58:39;;;;;;;3.20;2.55;;;;;;;;;;4992927;28;20197;-76
2021/10/17 12:01:08;;;;;;;7.10;3.10;;;;;;;;;;4987880;28;20193;-75
2021/10/17 12:03:35;;;;;;;3.60;3.05;;;;;;;;;;4986176;28;20200;-77
2021/10/17 12:06:02;;;;;;;3.10;2.80;;;;;;;;;;4985710;28;20213;-74
2021/10/17 12:08:30;;;;;;;3.80;2.50;;;;;;;;;;4984331;28;20215;-76
2021/10/17 12:11:00;;;;;;;3.72;3.25;;;;;;;;;;4983908;28;20312;-74
2021/10/17 12:13:27;;;;;;;5.05;3.15;;;;;;;;;;4989822;28;20668;-75
2021/10/17 12:16:05;;;;;;;4.93;2.08;;;;;;;;;;4990056;28;20193;-76
2021/10/17 12:18:32;;;;;;;3.70;2.35;;;;;;;;;;4983546;28;20209;-74
2021/10/17 12:21:00;;;;;;;3.28;2.70;;;;;;;;;;4981460;28;20206;-76
2021/10/17 12:23:27;;;;;;;7.25;2.88;;;;;;;;;;4983062;28;20239;-76
2021/10/17 12:25:54;;;;;;;5.00;2.65;;;;;;;;;;4985018;28;20212;-75
2021/10/17 12:28:22;;;;;;;5.40;2.95;;;;;;;;;;4984780;28;20201;-77
2021/10/17 12:30:50;;;;;;;2.33;2.10;;;;;;;;;;4982972;28;20217;-74
2021/10/17 12:33:27;;;;;;;2.22;2.03;;;;;;;;;;4984351;28;20236;-75
2021/10/17 12:35:55;;;;;;;5.20;2.13;;;;;;;;;;4984432;28;20208;-74
2021/10/17 12:38:22;;;;;;;6.15;2.88;;;;;;;;;;4986979;28;20216;-75
2021/10/17 12:40:53;;;;;;;2.97;2.30;;;;;;;;;;4984675;28;20193;-75
2021/10/17 12:43:25;;;;;;;3.75;2.38;;;;;;;;;;4982798;28;20552;-74
2021/10/17 12:45:53;;;;;;;4.63;2.17;;;;;;;;;;4984164;28;20198;-75
2021/10/17 12:48:34;;;;;;;3.47;2.72;;;;;;;;;;4987095;28;20281;-77
2021/10/17 12:51:01;;;;;;;7.60;2.65;;;;;;;;;;4985832;28;20249;-76
2021/10/17 12:53:28;;;;;;;3.20;2.13;;;;;;;;;;4986236;28;20921;-77
2021/10/17 12:55:56;;;;;;;4.65;2.67;;;;;;;;;;4983384;28;20669;-76
2021/10/17 12:58:29;;;;;;;2.65;2.45;;;;;;;;;;4981529;28;20216;-76
2021/10/17 13:01:04;;;;;;;2.55;2.22;;;;;;;;;;4984323;28;20224;-76
2021/10/17 13:03:31;;;;;;;3.72;2.38;;;;;;;;;;4981752;28;20224;-76
2021/10/17 13:05:59;;;;;;;2.63;1.90;;;;;;;;;;4991185;28;20608;-76
2021/10/17 13:08:27;;;;;;;4.00;2.70;;;;;;;;;;4980008;28;20198;-76
2021/10/17 13:11:07;;;;;;;3.05;2.10;;;;;;;;;;4985954;28;20220;-76
2021/10/17 13:13:35;;;;;;;2.45;2.25;;;;;;;;;;4985722;28;20215;-76
2021/10/17 13:16:02;;;;;;;6.18;3.40;;;;;;;;;;4980150;28;20205;-75
2021/10/17 13:18:29;;;;;;;4.95;4.45;;;;;;;;;;4989545;28;20217;-76
2021/10/17 13:20:57;;;;;;;2.60;2.30;;;;;;;;;;4990383;28;20194;-75
2021/10/17 13:23:24;;;;;;;4.95;3.50;;;;;;;;;;4985323;28;20201;-76
2021/10/17 13:25:53;;;;;;;3.40;2.53;;;;;;;;;;4986536;28;20572;-75
2021/10/17 13:28:21;;;;;;;2.40;2.20;;;;;;;;;;4981422;28;20212;-75
2021/10/17 13:30:49;;;;;;;2.50;2.30;;;;;;;;;;4981328;28;20222;-77
2021/10/17 13:33:17;;;;;;;3.67;2.33;;;;;;;;;;4984627;28;20193;-75
2021/10/17 13:35:44;;;;;;;3.92;2.33;;;;;;;;;;4991798;28;20296;-76
2021/10/17 13:38:14;;;;;;;4.97;2.55;;;;;;;;;;4992684;28;20608;-75
2021/10/17 13:40:41;;;;;;;2.33;2.13;;;;;;;;;;4995707;28;20664;-76
2021/10/17 13:43:08;;;;;;;6.72;2.90;;;;;;;;;;4984976;28;20480;-74
2021/10/17 13:45:36;;;;;;;2.33;2.13;;;;;;;;;;4990506;28;20673;-73
2021/10/17 13:48:05;;;;;;;3.08;2.30;;;;;;;;;;4991773;28;20284;-73
2021/10/17 13:50:32;;;;;;;4.57;2.08;;;;;;;;;;4989689;28;20676;-74
2021/10/17 13:53:00;;;;;;;3.40;2.13;;;;;;;;;;4981891;28;20202;-75
2021/10/17 13:55:27;;;;;;;2.20;1.83;;;;;;;;;;4987141;28;20224;-73
2021/10/17 13:57:54;;;;;;;2.33;2.13;;;;;;;;;;4986835;28;20202;-73
2021/10/17 14:00:27;;;;;;;4.03;2.25;;;;;;;;;;4987858;28;20197;-73
2021/10/17 14:02:55;;;;;;;2.35;2.15;;;;;;;;;;4985484;28;20572;-72
2021/10/17 14:05:24;;;;;;;4.03;2.25;;;;;;;;;;4986869;28;20678;-75
2021/10/17 14:07:51;;;;;;;2.38;2.17;;;;;;;;;;4989976;28;20205;-73
2021/10/17 14:10:19;;;;;;;2.40;2.10;;;;;;;;;;4993924;28;20288;-73
2021/10/17 14:12:46;;;;;;;2.55;2.35;;;;;;;;;;4995165;28;20197;-73
2021/10/17 14:15:13;;;;;;;3.08;2.42;;;;;;;;;;4990707;28;20201;-75
2021/10/17 14:17:40;;;;;;;3.78;1.90;;;;;;;;;;4987894;28;20213;-76
2021/10/17 14:20:09;;;;;;;2.40;2.20;;;;;;;;;;4989338;28;20198;-75
2021/10/17 14:22:37;;;;;;;4.15;2.58;;;;;;;;;;4987056;28;20212;-74
2021/10/17 14:25:05;;;;;;;2.95;2.33;;;;;;;;;;4990934;28;20205;-73
2021/10/17 14:27:33;;;;;;;3.65;1.73;;;;;;;;;;4994246;28;20649;-74
2021/10/17 14:30:00;;;;;;;2.58;1.73;;;;;;;;;;4987053;28;20225;-75
2021/10/17 14:32:27;;;;;;;3.05;2.00;;;;;;;;;;4985841;28;20264;-76
2021/10/17 14:34:55;;;;;;;3.38;2.67;;;;;;;;;;4983967;28;20259;-76
2021/10/17 14:37:22;;;;;;;4.90;2.33;;;;;;;;;;4986032;28;20198;-74
2021/10/17 14:39:50;;;;;;;3.95;2.00;;;;;;;;;;4985036;28;20201;-74
2021/10/17 14:42:17;;;;;;;2.67;2.10;;;;;;;;;;4986246;28;20683;-77
2021/10/17 14:44:44;;;;;;;2.88;1.88;;;;;;;;;;4984962;28;20201;-75
2021/10/17 14:47:11;;;;;;;2.83;2.10;;;;;;;;;;4984100;28;20613;-75